Main page
METAR-TAF:

METAR-TAF

Airports :

Jönköping Airport

Jönköping, Sweden

latitude: 57-46N, longitude: 014-05E, elevation: 226 m

Current weather observation

The report was made 23 minutes ago, at 17:50 UTC
Wind 5 kt from the Northwest
Temperature 19°C
Humidity 78%
Pressure 1013 hPa
Visibility 10 km or more

METAR: ESGJ 221750Z AUTO 32005KT 9999 SCT045/// 19/15 Q1013

Time: 20:13 (18:13 UTC)

Forecast

The report was made 43 minutes ago, at 17:30 UTC
Forecast valid from 22 at 18 UTC to 23 at 01 UTC
Wind 7 kt from the Northwest
Visibility 10 km or more
Scattered clouds at a height of 3500 ft
Probability 40%
from 22 at 21 UTC to 23 at 01 UTC
Broken clouds at a height of 900 ft

TAF: ESGJ 221730Z 2218/2301 32007KT 9999 SCT035 PROB40 2221/2301 BKN009

Weather observations and forecasts of more than 4000 airports (METAR and TAF reports).

The available stations are represented by yellow and red dots on the map.

Hover mouse over dot to see the name of the station.

Then click to see weather observations and forecasts.

To change the map : click on the green buttons with a black cross to zoom in, on the green button with a dash to zoom out, or on the green arrows for adjacent maps.


METAR-TAF: